sensor_id;sensor_type;location;lat;lon;timestamp;pressure;altitude;pressure_sealevel;temperature;humidity
46598;BME280;32318;48.858;8.252;2022-07-29T00:03:58;99917.81;;;24.47;46.51
46598;BME280;32318;48.858;8.252;2022-07-29T00:12:00;99921.63;;;24.46;46.64
46598;BME280;32318;48.858;8.252;2022-07-29T00:20:00;99907.34;;;24.28;46.92
46598;BME280;32318;48.858;8.252;2022-07-29T00:28:01;99911.31;;;24.05;47.26
46598;BME280;32318;48.858;8.252;2022-07-29T00:36:01;99904.22;;;24.04;47.19
46598;BME280;32318;48.858;8.252;2022-07-29T00:44:01;99899.72;;;23.93;47.84
46598;BME280;32318;48.858;8.252;2022-07-29T00:52:03;99902.13;;;23.84;48.53
46598;BME280;32318;48.858;8.252;2022-07-29T01:00:06;99902.59;;;23.76;48.72
46598;BME280;32318;48.858;8.252;2022-07-29T01:08:08;99898.75;;;23.72;48.86
46598;BME280;32318;48.858;8.252;2022-07-29T01:17:00;99897.00;;;23.60;51.62
46598;BME280;32318;48.858;8.252;2022-07-29T01:33:10;99900.81;;;23.27;50.89
46598;BME280;32318;48.858;8.252;2022-07-29T01:41:33;99896.88;;;23.17;50.27
46598;BME280;32318;48.858;8.252;2022-07-29T01:49:36;99900.84;;;23.10;50.80
46598;BME280;32318;48.858;8.252;2022-07-29T01:57:45;99907.38;;;23.09;50.48
46598;BME280;32318;48.858;8.252;2022-07-29T02:05:46;99903.41;;;22.94;53.00
46598;BME280;32318;48.858;8.252;2022-07-29T02:13:49;99917.22;;;22.65;50.73
46598;BME280;32318;48.858;8.252;2022-07-29T02:21:54;99920.63;;;22.55;51.46
46598;BME280;32318;48.858;8.252;2022-07-29T02:29:57;99924.38;;;22.49;52.44
46598;BME280;32318;48.858;8.252;2022-07-29T02:37:58;99926.06;;;22.38;51.90
46598;BME280;32318;48.858;8.252;2022-07-29T02:46:23;99930.59;;;22.33;53.10
46598;BME280;32318;48.858;8.252;2022-07-29T02:54:39;99927.25;;;22.25;54.08
46598;BME280;32318;48.858;8.252;2022-07-29T03:02:44;99932.31;;;22.17;53.22
46598;BME280;32318;48.858;8.252;2022-07-29T03:10:46;99940.78;;;22.03;52.92
46598;BME280;32318;48.858;8.252;2022-07-29T03:18:47;99933.19;;;22.05;53.62
46598;BME280;32318;48.858;8.252;2022-07-29T03:26:47;99940.47;;;21.83;53.27
46598;BME280;32318;48.858;8.252;2022-07-29T03:34:47;99934.59;;;21.74;53.49
46598;BME280;32318;48.858;8.252;2022-07-29T03:42:49;99940.28;;;21.72;53.68
46598;BME280;32318;48.858;8.252;2022-07-29T03:50:51;99948.25;;;21.62;53.51
46598;BME280;32318;48.858;8.252;2022-07-29T03:58:52;99943.91;;;21.49;54.32
46598;BME280;32318;48.858;8.252;2022-07-29T04:06:53;99952.59;;;21.34;54.76
46598;BME280;32318;48.858;8.252;2022-07-29T04:14:53;99964.66;;;21.38;54.62
46598;BME280;32318;48.858;8.252;2022-07-29T04:22:53;99955.91;;;21.36;54.78
46598;BME280;32318;48.858;8.252;2022-07-29T04:30:54;99972.19;;;21.36;55.08
46598;BME280;32318;48.858;8.252;2022-07-29T04:38:54;99977.53;;;21.31;54.98
46598;BME280;32318;48.858;8.252;2022-07-29T04:46:55;99980.47;;;21.29;55.50
46598;BME280;32318;48.858;8.252;2022-07-29T04:54:55;99975.78;;;21.25;55.69
46598;BME280;32318;48.858;8.252;2022-07-29T05:02:55;99986.06;;;21.23;55.45
46598;BME280;32318;48.858;8.252;2022-07-29T05:10:55;99986.88;;;21.23;55.50
46598;BME280;32318;48.858;8.252;2022-07-29T05:18:56;99987.75;;;21.12;56.23
46598;BME280;32318;48.858;8.252;2022-07-29T05:27:08;99992.56;;;21.22;57.37
46598;BME280;32318;48.858;8.252;2022-07-29T05:35:09;100001.19;;;21.19;55.52
46598;BME280;32318;48.858;8.252;2022-07-29T05:43:12;100003.78;;;21.25;56.32
46598;BME280;32318;48.858;8.252;2022-07-29T05:51:16;100014.66;;;21.54;54.60
46598;BME280;32318;48.858;8.252;2022-07-29T05:59:16;100032.66;;;21.72;54.46
46598;BME280;32318;48.858;8.252;2022-07-29T06:07:19;100039.03;;;21.95;53.91
46598;BME280;32318;48.858;8.252;2022-07-29T06:15:21;100053.78;;;22.28;53.41
46598;BME280;32318;48.858;8.252;2022-07-29T06:23:22;100055.97;;;22.31;53.10
46598;BME280;32318;48.858;8.252;2022-07-29T06:31:22;100054.94;;;22.49;52.83
46598;BME280;32318;48.858;8.252;2022-07-29T06:39:22;100061.59;;;22.76;51.68
46598;BME280;32318;48.858;8.252;2022-07-29T06:47:25;100065.09;;;23.10;50.53
46598;BME280;32318;48.858;8.252;2022-07-29T06:55:26;100069.09;;;23.47;50.02
46598;BME280;32318;48.858;8.252;2022-07-29T07:03:26;100072.31;;;23.66;49.66
46598;BME280;32318;48.858;8.252;2022-07-29T07:11:27;100080.34;;;23.78;49.41
46598;BME280;32318;48.858;8.252;2022-07-29T07:19:27;100085.56;;;23.79;49.18
46598;BME280;32318;48.858;8.252;2022-07-29T07:27:33;100081.03;;;23.90;48.06
46598;BME280;32318;48.858;8.252;2022-07-29T07:36:02;100080.75;;;24.19;46.08
46598;BME280;32318;48.858;8.252;2022-07-29T07:44:03;100085.25;;;24.31;47.63
46598;BME280;32318;48.858;8.252;2022-07-29T07:52:04;100085.34;;;24.46;47.26
46598;BME280;32318;48.858;8.252;2022-07-29T08:00:05;100085.31;;;24.36;47.19
46598;BME280;32318;48.858;8.252;2022-07-29T08:08:07;100085.63;;;24.44;46.92
46598;BME280;32318;48.858;8.252;2022-07-29T08:16:10;100100.75;;;24.57;46.31
46598;BME280;32318;48.858;8.252;2022-07-29T08:24:15;100101.31;;;24.92;45.98
46598;BME280;32318;48.858;8.252;2022-07-29T08:32:36;100097.97;;;25.38;43.43
46598;BME280;32318;48.858;8.252;2022-07-29T08:40:37;100107.31;;;25.42;44.35
46598;BME280;32318;48.858;8.252;2022-07-29T08:48:38;100117.28;;;25.74;43.30
46598;BME280;32318;48.858;8.252;2022-07-29T08:56:41;100106.34;;;25.84;43.47
46598;BME280;32318;48.858;8.252;2022-07-29T09:04:44;100103.63;;;25.74;43.43
46598;BME280;32318;48.858;8.252;2022-07-29T09:12:45;100116.78;;;25.93;42.71
46598;BME280;32318;48.858;8.252;2022-07-29T09:20:54;100109.19;;;26.15;42.25
46598;BME280;32318;48.858;8.252;2022-07-29T09:29:16;100106.47;;;26.31;42.22
46598;BME280;32318;48.858;8.252;2022-07-29T09:37:27;100096.06;;;26.59;40.03
46598;BME280;32318;48.858;8.252;2022-07-29T09:45:33;100090.59;;;26.64;39.81
46598;BME280;32318;48.858;8.252;2022-07-29T09:53:35;100094.13;;;26.85;40.54
46598;BME280;32318;48.858;8.252;2022-07-29T10:01:36;100102.34;;;27.01;40.63
46598;BME280;32318;48.858;8.252;2022-07-29T10:09:37;100098.19;;;27.08;40.25
46598;BME280;32318;48.858;8.252;2022-07-29T10:17:37;100088.84;;;27.15;40.60
46598;BME280;32318;48.858;8.252;2022-07-29T10:25:38;100071.25;;;27.31;40.06
46598;BME280;32318;48.858;8.252;2022-07-29T10:34:02;100056.19;;;27.29;39.37
46598;BME280;32318;48.858;8.252;2022-07-29T10:42:36;100051.44;;;27.55;39.50
46598;BME280;32318;48.858;8.252;2022-07-29T10:51:17;100061.47;;;27.75;38.41
46598;BME280;32318;48.858;8.252;2022-07-29T11:16:21;100043.09;;;28.50;37.37
46598;BME280;32318;48.858;8.252;2022-07-29T11:24:27;100045.69;;;28.65;37.13
46598;BME280;32318;48.858;8.252;2022-07-29T11:32:39;100039.75;;;29.07;34.98
46598;BME280;32318;48.858;8.252;2022-07-29T11:40:40;100032.94;;;29.23;35.53
46598;BME280;32318;48.858;8.252;2022-07-29T11:48:44;100037.28;;;29.30;34.12
46598;BME280;32318;48.858;8.252;2022-07-29T11:56:45;100034.22;;;29.55;33.37
46598;BME280;32318;48.858;8.252;2022-07-29T12:04:49;100044.03;;;29.42;32.93
46598;BME280;32318;48.858;8.252;2022-07-29T12:12:53;100049.22;;;29.20;32.70
46598;BME280;32318;48.858;8.252;2022-07-29T12:20:59;100050.75;;;29.07;31.90
46598;BME280;32318;48.858;8.252;2022-07-29T12:29:00;100059.53;;;29.09;33.24
46598;BME280;32318;48.858;8.252;2022-07-29T12:37:01;100051.72;;;28.92;32.88
46598;BME280;32318;48.858;8.252;2022-07-29T12:45:03;100064.09;;;28.94;33.58
46598;BME280;32318;48.858;8.252;2022-07-29T12:53:11;100059.63;;;28.99;32.03
46598;BME280;32318;48.858;8.252;2022-07-29T13:01:15;100061.47;;;29.08;32.86
46598;BME280;32318;48.858;8.252;2022-07-29T13:09:19;100070.09;;;28.96;32.08
46598;BME280;32318;48.858;8.252;2022-07-29T13:17:21;100074.56;;;28.92;32.62
46598;BME280;32318;48.858;8.252;2022-07-29T13:25:31;100075.44;;;28.88;31.98
46598;BME280;32318;48.858;8.252;2022-07-29T13:33:32;100070.28;;;28.81;32.71
46598;BME280;32318;48.858;8.252;2022-07-29T13:41:32;100063.13;;;28.80;32.25
46598;BME280;32318;48.858;8.252;2022-07-29T13:49:32;100065.97;;;28.99;32.34
46598;BME280;32318;48.858;8.252;2022-07-29T13:57:33;100058.00;;;29.22;31.79
46598;BME280;32318;48.858;8.252;2022-07-29T14:05:33;100047.72;;;29.33;31.53
46598;BME280;32318;48.858;8.252;2022-07-29T14:13:33;100047.00;;;29.46;31.25
46598;BME280;32318;48.858;8.252;2022-07-29T14:21:33;100029.53;;;29.37;31.50
46598;BME280;32318;48.858;8.252;2022-07-29T14:29:34;100037.88;;;29.26;31.57
46598;BME280;32318;48.858;8.252;2022-07-29T14:37:35;100038.44;;;29.48;31.31
46598;BME280;32318;48.858;8.252;2022-07-29T14:45:35;100041.63;;;29.55;31.11
46598;BME280;32318;48.858;8.252;2022-07-29T14:53:36;100043.44;;;29.65;29.81
46598;BME280;32318;48.858;8.252;2022-07-29T15:01:36;100041.88;;;29.78;30.14
46598;BME280;32318;48.858;8.252;2022-07-29T15:09:37;100028.72;;;29.55;29.83
46598;BME280;32318;48.858;8.252;2022-07-29T15:17:37;100029.91;;;29.68;30.15
46598;BME280;32318;48.858;8.252;2022-07-29T15:25:38;100029.38;;;29.66;29.82
46598;BME280;32318;48.858;8.252;2022-07-29T15:33:39;100024.22;;;29.79;29.57
46598;BME280;32318;48.858;8.252;2022-07-29T15:41:39;100027.59;;;29.76;29.76
46598;BME280;32318;48.858;8.252;2022-07-29T15:49:40;100017.41;;;29.57;30.12
46598;BME280;32318;48.858;8.252;2022-07-29T15:57:40;100025.66;;;29.38;30.38
46598;BME280;32318;48.858;8.252;2022-07-29T16:05:41;100024.59;;;29.34;30.91
46598;BME280;32318;48.858;8.252;2022-07-29T16:13:41;100023.50;;;29.35;31.30
46598;BME280;32318;48.858;8.252;2022-07-29T16:21:41;100009.25;;;29.27;31.57
46598;BME280;32318;48.858;8.252;2022-07-29T16:29:42;99999.06;;;29.28;31.52
46598;BME280;32318;48.858;8.252;2022-07-29T16:37:42;99999.31;;;29.32;31.28
46598;BME280;32318;48.858;8.252;2022-07-29T16:45:43;99993.63;;;29.47;30.99
46598;BME280;32318;48.858;8.252;2022-07-29T16:53:43;99994.22;;;29.44;30.64
46598;BME280;32318;48.858;8.252;2022-07-29T17:01:44;100007.56;;;29.32;31.05
46598;BME280;32318;48.858;8.252;2022-07-29T17:17:54;100005.94;;;28.87;31.99
46598;BME280;32318;48.858;8.252;2022-07-29T17:25:54;100011.31;;;28.73;32.38
46598;BME280;32318;48.858;8.252;2022-07-29T17:33:55;100010.94;;;28.51;32.39
46598;BME280;32318;48.858;8.252;2022-07-29T17:41:55;100006.47;;;28.30;32.65
46598;BME280;32318;48.858;8.252;2022-07-29T17:49:55;100023.66;;;28.12;32.62
46598;BME280;32318;48.858;8.252;2022-07-29T17:57:55;100021.81;;;27.97;33.12
46598;BME280;32318;48.858;8.252;2022-07-29T18:05:56;100035.38;;;27.83;32.93
46598;BME280;32318;48.858;8.252;2022-07-29T18:13:56;100039.84;;;27.68;33.25
46598;BME280;32318;48.858;8.252;2022-07-29T18:21:56;100048.22;;;27.48;33.59
46598;BME280;32318;48.858;8.252;2022-07-29T18:29:57;100059.50;;;27.26;34.60
46598;BME280;32318;48.858;8.252;2022-07-29T18:37:57;100063.69;;;27.02;35.42
46598;BME280;32318;48.858;8.252;2022-07-29T18:45:58;100060.19;;;26.81;36.10
46598;BME280;32318;48.858;8.252;2022-07-29T18:53:58;100068.13;;;26.62;36.30
46598;BME280;32318;48.858;8.252;2022-07-29T19:01:58;100070.06;;;26.46;37.17
46598;BME280;32318;48.858;8.252;2022-07-29T19:09:59;100085.38;;;26.31;37.03
46598;BME280;32318;48.858;8.252;2022-07-29T19:17:59;100083.75;;;26.20;37.29
46598;BME280;32318;48.858;8.252;2022-07-29T19:25:59;100088.91;;;26.01;37.94
46598;BME280;32318;48.858;8.252;2022-07-29T19:34:00;100113.78;;;25.94;38.05
46598;BME280;32318;48.858;8.252;2022-07-29T19:42:00;100119.22;;;25.84;38.43
46598;BME280;32318;48.858;8.252;2022-07-29T19:50:01;100120.56;;;25.76;39.26
46598;BME280;32318;48.858;8.252;2022-07-29T19:58:01;100126.03;;;25.71;39.26
46598;BME280;32318;48.858;8.252;2022-07-29T20:06:03;100123.75;;;25.52;40.19
46598;BME280;32318;48.858;8.252;2022-07-29T20:14:03;100128.38;;;25.42;40.04
46598;BME280;32318;48.858;8.252;2022-07-29T20:22:04;100135.13;;;25.34;40.01
46598;BME280;32318;48.858;8.252;2022-07-29T20:30:05;100126.63;;;25.30;40.58
46598;BME280;32318;48.858;8.252;2022-07-29T20:38:06;100131.31;;;25.35;40.96
46598;BME280;32318;48.858;8.252;2022-07-29T20:46:06;100121.66;;;25.22;40.81
46598;BME280;32318;48.858;8.252;2022-07-29T20:54:06;100130.38;;;25.14;41.34
46598;BME280;32318;48.858;8.252;2022-07-29T21:02:07;100140.16;;;25.04;41.25
46598;BME280;32318;48.858;8.252;2022-07-29T21:10:08;100146.31;;;24.89;40.97
46598;BME280;32318;48.858;8.252;2022-07-29T21:18:08;100169.25;;;24.88;40.87
46598;BME280;32318;48.858;8.252;2022-07-29T21:26:25;100178.78;;;24.86;40.52
46598;BME280;32318;48.858;8.252;2022-07-29T21:34:25;100188.34;;;24.83;40.90
46598;BME280;32318;48.858;8.252;2022-07-29T21:42:27;100205.22;;;24.80;41.18
46598;BME280;32318;48.858;8.252;2022-07-29T21:50:27;100211.78;;;24.79;41.16
46598;BME280;32318;48.858;8.252;2022-07-29T21:58:27;100221.09;;;24.83;41.13
46598;BME280;32318;48.858;8.252;2022-07-29T22:06:27;100228.53;;;24.61;41.96
46598;BME280;32318;48.858;8.252;2022-07-29T22:14:28;100238.28;;;24.56;42.42
46598;BME280;32318;48.858;8.252;2022-07-29T22:22:28;100246.69;;;24.50;42.34
46598;BME280;32318;48.858;8.252;2022-07-29T22:30:28;100246.00;;;24.37;42.73
46598;BME280;32318;48.858;8.252;2022-07-29T22:38:28;100252.75;;;24.30;43.22
46598;BME280;32318;48.858;8.252;2022-07-29T22:46:29;100264.50;;;24.08;43.29
46598;BME280;32318;48.858;8.252;2022-07-29T22:54:29;100274.25;;;24.04;44.14
46598;BME280;32318;48.858;8.252;2022-07-29T23:02:29;100282.38;;;23.99;45.62
46598;BME280;32318;48.858;8.252;2022-07-29T23:10:30;100284.16;;;23.71;47.69
46598;BME280;32318;48.858;8.252;2022-07-29T23:18:30;100287.06;;;23.47;48.13
46598;BME280;32318;48.858;8.252;2022-07-29T23:26:30;100291.19;;;23.32;48.77
46598;BME280;32318;48.858;8.252;2022-07-29T23:34:31;100301.75;;;23.12;50.36
46598;BME280;32318;48.858;8.252;2022-07-29T23:42:31;100309.81;;;23.07;50.22
46598;BME280;32318;48.858;8.252;2022-07-29T23:50:31;100315.56;;;22.93;50.84
46598;BME280;32318;48.858;8.252;2022-07-29T23:58:32;100318.34;;;22.81;51.52
